Time;durP1;ratioP1;P1;durP2;ratioP2;P2;SDS_P1;SDS_P2;PMS_P1;PMS_P2;Temp;Humidity;BMP_temperature;BMP_pressure;BME280_temperature;BME280_humidity;BME280_pressure;Samples;Min_cycle;Max_cycle;Signal;HPM_P1;HPM_P2
2022/02/25 00:00:17;;;;;;;0.20;0.20;;;2.80;99.90;;;;;;5082765;28;20039;-93
2022/02/25 00:02:44;;;;;;;0.10;0.10;;;2.80;99.90;;;;;;5099534;28;20039;-93
2022/02/25 00:05:10;;;;;;;0.20;0.20;;;3.70;99.90;;;;;;5082939;28;20046;-94
2022/02/25 00:07:37;;;;;;;0.20;0.20;;;2.80;99.90;;;;;;5074920;28;20057;-86
2022/02/25 00:10:05;;;;;;;0.20;0.20;;;2.80;99.90;;;;;;5075385;28;20040;-86
2022/02/25 00:12:32;;;;;;;0.20;0.20;;;2.80;99.90;;;;;;5075478;28;20047;-94
2022/02/25 00:14:58;;;;;;;0.20;0.20;;;2.90;99.90;;;;;;5075585;28;20481;-93
2022/02/25 00:17:25;;;;;;;0.20;0.20;;;2.90;99.90;;;;;;5074696;28;20045;-87
2022/02/25 00:19:52;;;;;;;0.20;0.20;;;2.90;99.90;;;;;;5075106;28;20045;-86
2022/02/25 00:22:18;;;;;;;0.10;0.10;;;3.00;99.90;;;;;;5075530;28;20405;-93
2022/02/25 00:24:45;;;;;;;0.10;0.10;;;3.40;99.90;;;;;;5074951;28;20068;-93
2022/02/25 00:27:12;;;;;;;0.20;0.20;;;2.80;99.90;;;;;;5075441;28;20097;-93
2022/02/25 00:29:39;;;;;;;0.20;0.20;;;2.90;99.90;;;;;;5075180;28;20040;-93
2022/02/25 00:32:06;;;;;;;0.20;0.20;;;2.80;99.90;;;;;;5091953;28;20409;-92
2022/02/25 00:34:33;;;;;;;0.10;0.10;;;2.80;99.90;;;;;;5074968;28;20040;-94
2022/02/25 00:36:59;;;;;;;0.13;0.13;;;2.80;99.90;;;;;;5075132;28;20040;-86
2022/02/25 00:39:26;;;;;;;0.20;0.20;;;2.80;99.90;;;;;;5074773;28;20098;-86
2022/02/25 00:41:53;;;;;;;0.85;0.82;;;2.90;99.90;;;;;;5091294;28;20047;-86
2022/02/25 00:44:19;;;;;;;0.20;0.20;;;2.90;99.90;;;;;;5074478;28;20036;-94
2022/02/25 00:46:46;;;;;;;0.20;0.20;;;4.00;99.90;;;;;;5090233;28;20047;-94
2022/02/25 00:49:13;;;;;;;3.03;0.73;;;3.00;99.90;;;;;;5074745;28;20037;-87
2022/02/25 00:51:40;;;;;;;0.20;0.20;;;3.00;99.90;;;;;;5074449;28;20153;-94
2022/02/25 00:54:06;;;;;;;0.17;0.17;;;3.00;99.90;;;;;;5075072;28;20370;-93
2022/02/25 00:56:33;;;;;;;0.10;0.10;;;3.00;99.90;;;;;;5074588;28;20392;-94
2022/02/25 00:59:00;;;;;;;0.20;0.20;;;3.00;99.90;;;;;;5074546;28;20044;-86
2022/02/25 01:01:26;;;;;;;0.10;0.10;;;3.50;99.90;;;;;;5074219;28;20037;-93
2022/02/25 01:03:53;;;;;;;0.10;0.10;;;3.10;99.90;;;;;;5074435;28;20075;-86
2022/02/25 01:06:20;;;;;;;0.20;0.20;;;3.80;99.90;;;;;;5099002;28;20044;-86
2022/02/25 01:08:47;;;;;;;0.10;0.10;;;3.70;99.90;;;;;;5094236;28;20044;-87
2022/02/25 01:11:13;;;;;;;0.10;0.10;;;3.20;99.90;;;;;;5094134;28;20040;-86
2022/02/25 01:13:40;;;;;;;0.10;0.10;;;3.10;99.90;;;;;;5076783;28;20040;-86
2022/02/25 01:16:07;;;;;;;0.20;0.20;;;3.20;99.90;;;;;;5078000;28;20036;-86
2022/02/25 01:18:33;;;;;;;0.10;0.10;;;3.20;99.90;;;;;;5078095;28;20403;-89
2022/02/25 01:21:00;;;;;;;0.32;0.30;;;3.50;99.90;;;;;;5078419;28;20104;-86
2022/02/25 01:23:27;;;;;;;0.20;0.20;;;3.90;99.90;;;;;;5077527;28;20071;-92
2022/02/25 01:25:54;;;;;;;0.20;0.20;;;3.20;99.90;;;;;;5093894;28;20040;-93
2022/02/25 01:28:21;;;;;;;0.20;0.20;;;3.20;99.90;;;;;;5093996;28;20036;-86
2022/02/25 01:30:48;;;;;;;0.10;0.10;;;3.90;99.90;;;;;;5093675;28;20119;-86
2022/02/25 01:33:14;;;;;;;0.10;0.10;;;3.20;99.90;;;;;;5077401;28;20082;-93
2022/02/25 01:35:41;;;;;;;0.20;0.20;;;3.20;99.90;;;;;;5093860;28;20086;-93
2022/02/25 01:38:08;;;;;;;0.20;0.20;;;3.20;99.90;;;;;;5077504;28;20126;-86
2022/02/25 01:40:34;;;;;;;0.10;0.10;;;4.10;99.90;;;;;;5093624;28;20050;-86
2022/02/25 01:43:01;;;;;;;0.10;0.10;;;4.30;99.90;;;;;;5110564;28;20036;-86
2022/02/25 01:45:29;;;;;;;0.10;0.10;;;3.90;99.90;;;;;;5077353;28;20028;-94
2022/02/25 01:47:55;;;;;;;0.20;0.20;;;3.20;99.90;;;;;;5110481;28;20043;-94
2022/02/25 01:50:22;;;;;;;0.17;0.17;;;3.30;99.90;;;;;;5077855;28;20044;-93
2022/02/25 01:53:05;;;;;;;0.10;0.10;;;3.70;99.90;;;;;;5093691;28;20477;-95
2022/02/25 01:55:33;;;;;;;0.20;0.20;;;3.40;99.90;;;;;;5110462;28;20059;-86
2022/02/25 01:58:00;;;;;;;0.15;0.15;;;3.40;99.90;;;;;;5093579;28;20123;-93
2022/02/25 02:00:27;;;;;;;0.10;0.10;;;3.40;99.90;;;;;;5110146;28;20135;-92
2022/02/25 02:02:54;;;;;;;0.10;0.10;;;3.40;99.90;;;;;;5110243;28;20051;-93
2022/02/25 02:05:22;;;;;;;0.20;0.20;;;3.40;99.90;;;;;;5077387;28;20353;-94
2022/02/25 02:07:49;;;;;;;0.10;0.10;;;3.50;99.90;;;;;;5097214;28;20047;-93
2022/02/25 02:10:15;;;;;;;0.20;0.20;;;3.50;99.90;;;;;;5097504;28;20040;-86
2022/02/25 02:12:42;;;;;;;0.10;0.10;;;3.60;99.90;;;;;;5114006;28;20511;-93
2022/02/25 02:15:10;;;;;;;0.15;0.15;;;3.50;99.90;;;;;;5096881;28;20032;-86
2022/02/25 02:17:37;;;;;;;0.10;0.10;;;3.50;99.90;;;;;;5113492;28;20108;-86
2022/02/25 02:20:05;;;;;;;0.20;0.20;;;3.60;99.90;;;;;;5112741;28;20032;-86
2022/02/25 02:22:33;;;;;;;0.10;0.10;;;3.60;99.90;;;;;;5097096;28;20082;-94
2022/02/25 02:25:00;;;;;;;0.13;0.13;;;4.00;99.90;;;;;;5130197;28;20036;-86
2022/02/25 02:28:17;;;;;;;0.17;0.17;;;4.50;99.90;;;;;;5113699;28;20052;-86
2022/02/25 02:30:16;;;;;;;0.10;0.10;;;4.60;99.90;;;;;;5116352;28;20134;-93
2022/02/25 02:32:43;;;;;;;0.10;0.10;;;4.60;99.90;;;;;;5113623;28;20492;-86
2022/02/25 02:35:09;;;;;;;0.10;0.10;;;3.70;99.90;;;;;;5113865;28;20123;-86
2022/02/25 02:37:36;;;;;;;0.20;0.20;;;4.90;99.90;;;;;;5113412;28;20071;-94
2022/02/25 02:40:05;;;;;;;0.10;0.10;;;3.70;99.90;;;;;;5113513;28;20122;-86
2022/02/25 02:42:32;;;;;;;0.10;0.10;;;3.80;99.90;;;;;;5113211;28;20142;-86
2022/02/25 02:45:03;;;;;;;0.10;0.10;;;4.10;99.90;;;;;;5113068;28;20044;-93
2022/02/25 02:47:29;;;;;;;1.65;0.60;;;3.70;99.90;;;;;;5113142;28;20040;-86
2022/02/25 02:49:56;;;;;;;0.10;0.10;;;3.80;99.90;;;;;;5079757;28;20050;-86
2022/02/25 02:52:23;;;;;;;0.17;0.17;;;3.90;99.90;;;;;;5080196;28;20039;-94
2022/02/25 02:54:50;;;;;;;0.13;0.13;;;3.80;99.90;;;;;;5113226;28;20050;-86
2022/02/25 02:57:20;;;;;;;0.10;0.10;;;4.30;99.90;;;;;;5080272;28;20043;-86
2022/02/25 02:59:47;;;;;;;0.10;0.10;;;3.80;99.90;;;;;;5096585;28;20040;-93
2022/02/25 03:02:14;;;;;;;0.10;0.10;;;3.80;99.90;;;;;;5096820;28;20046;-86
2022/02/25 03:04:40;;;;;;;0.10;0.10;;;3.90;99.90;;;;;;5113197;28;20071;-93
2022/02/25 03:07:07;;;;;;;0.10;0.10;;;4.40;99.90;;;;;;5079594;28;20071;-86
2022/02/25 03:09:34;;;;;;;0.10;0.10;;;3.70;99.90;;;;;;5099482;28;20044;-94
2022/02/25 03:12:02;;;;;;;0.15;0.15;;;3.70;99.90;;;;;;5100514;28;20096;-94
2022/02/25 03:14:29;;;;;;;0.20;0.20;;;3.60;99.90;;;;;;5100271;28;20040;-86
2022/02/25 03:16:55;;;;;;;0.20;0.20;;;3.60;99.90;;;;;;5116291;28;20144;-86
2022/02/25 03:19:22;;;;;;;0.10;0.10;;;3.50;99.90;;;;;;5083058;28;20036;-86
2022/02/25 03:21:49;;;;;;;0.10;0.10;;;3.60;99.90;;;;;;5116637;28;20027;-86
2022/02/25 03:24:16;;;;;;;0.10;0.10;;;3.40;99.90;;;;;;5100035;28;20039;-94
2022/02/25 03:26:42;;;;;;;0.15;0.15;;;3.40;99.90;;;;;;5100326;28;20111;-94
2022/02/25 03:29:10;;;;;;;0.20;0.20;;;3.30;99.90;;;;;;5099858;28;20077;-93
2022/02/25 03:31:37;;;;;;;0.10;0.10;;;3.90;99.90;;;;;;5083715;28;20047;-86
2022/02/25 03:34:03;;;;;;;0.10;0.10;;;3.20;99.90;;;;;;5082971;28;20581;-86
2022/02/25 03:36:30;;;;;;;0.10;0.10;;;3.60;99.90;;;;;;5100168;28;20046;-94
2022/02/25 03:38:57;;;;;;;0.10;0.10;;;4.20;99.90;;;;;;5082992;28;20559;-85
2022/02/25 03:41:23;;;;;;;0.10;0.10;;;4.20;99.90;;;;;;5083080;28;20388;-86
2022/02/25 03:43:52;;;;;;;0.10;0.10;;;3.20;99.90;;;;;;5116007;28;20500;-86
2022/02/25 03:46:19;;;;;;;0.10;0.10;;;3.00;99.90;;;;;;5116625;28;20050;-93
2022/02/25 03:48:46;;;;;;;0.10;0.10;;;3.10;99.90;;;;;;5083111;28;20044;-94
2022/02/25 03:51:12;;;;;;;0.10;0.10;;;3.40;99.90;;;;;;5099201;28;20130;-93
2022/02/25 03:53:39;;;;;;;0.20;0.20;;;3.80;99.90;;;;;;5082941;28;20123;-86
2022/02/25 03:56:06;;;;;;;0.20;0.20;;;3.00;99.90;;;;;;5132619;28;20043;-86
2022/02/25 03:58:32;;;;;;;0.10;0.10;;;3.00;99.90;;;;;;5116296;28;20484;-93
2022/02/25 04:00:59;;;;;;;0.17;0.17;;;3.00;99.90;;;;;;5082376;28;20080;-86
2022/02/25 04:03:26;;;;;;;0.10;0.10;;;3.00;99.90;;;;;;5099213;28;20043;-92
2022/02/25 04:05:52;;;;;;;0.10;0.10;;;3.20;99.90;;;;;;5115620;28;20095;-86
2022/02/25 04:08:19;;;;;;;0.13;0.13;;;3.90;99.90;;;;;;5082048;28;20044;-94
2022/02/25 04:10:46;;;;;;;0.10;0.10;;;2.90;99.90;;;;;;5099196;28;20039;-93
2022/02/25 04:13:13;;;;;;;0.20;0.20;;;2.90;99.90;;;;;;5098863;28;20032;-94
2022/02/25 04:15:39;;;;;;;0.10;0.10;;;2.90;99.90;;;;;;5082682;28;20143;-93
2022/02/25 04:18:06;;;;;;;0.10;0.10;;;2.90;99.90;;;;;;5081933;28;20043;-94
2022/02/25 04:20:33;;;;;;;0.10;0.10;;;3.40;99.90;;;;;;5098523;28;20035;-94
2022/02/25 04:22:59;;;;;;;0.20;0.20;;;2.80;99.90;;;;;;5082287;28;20472;-94
2022/02/25 04:25:26;;;;;;;0.10;0.10;;;2.80;99.90;;;;;;5098954;28;20549;-86
2022/02/25 04:27:53;;;;;;;0.15;0.15;;;2.80;99.90;;;;;;5115599;28;20031;-86
2022/02/25 04:30:20;;;;;;;0.10;0.10;;;2.80;99.90;;;;;;5082080;28;20638;-93
2022/02/25 04:32:48;;;;;;;0.20;0.20;;;2.80;99.90;;;;;;5113397;27;20123;-92
2022/02/25 04:35:15;;;;;;;0.20;0.20;;;2.70;99.90;;;;;;5101811;27;20054;-86
2022/02/25 04:37:42;;;;;;;0.20;0.20;;;3.70;99.90;;;;;;5102265;27;20035;-86
2022/02/25 04:40:09;;;;;;;0.20;0.20;;;3.60;99.90;;;;;;5118260;27;20037;-94
2022/02/25 04:42:36;;;;;;;0.20;0.20;;;2.70;99.90;;;;;;5118822;27;20045;-92
2022/02/25 04:45:05;;;;;;;0.10;0.10;;;3.30;99.90;;;;;;5135360;27;20395;-92
2022/02/25 04:47:32;;;;;;;0.10;0.10;;;2.60;99.90;;;;;;5119065;27;20039;-86
2022/02/25 04:49:59;;;;;;;0.20;0.20;;;2.60;99.90;;;;;;5101917;27;20042;-86
2022/02/25 04:52:25;;;;;;;0.20;0.20;;;3.10;99.90;;;;;;5135296;27;20484;-94
2022/02/25 04:54:52;;;;;;;0.20;0.20;;;2.40;99.90;;;;;;5102050;27;20151;-85
2022/02/25 04:57:19;;;;;;;0.20;0.20;;;3.20;99.90;;;;;;5101468;27;20046;-94
2022/02/25 04:59:46;;;;;;;0.20;0.20;;;2.30;99.90;;;;;;5135172;27;20039;-93
2022/02/25 05:02:12;;;;;;;0.20;0.20;;;2.30;99.90;;;;;;5101051;27;20043;-92
2022/02/25 05:04:39;;;;;;;0.20;0.20;;;2.60;99.90;;;;;;5101415;27;20395;-86
2022/02/25 05:07:06;;;;;;;0.10;0.10;;;3.40;99.90;;;;;;5097636;28;20048;-87
2022/02/25 05:09:33;;;;;;;0.20;0.20;;;3.30;99.90;;;;;;5114557;28;20074;-92
2022/02/25 05:12:00;;;;;;;0.20;0.20;;;2.30;99.90;;;;;;5114424;28;20071;-94
2022/02/25 05:20:15;;;;;;;0.20;0.20;;;2.60;99.90;;;;;;5119685;28;20036;-86
2022/02/25 05:22:42;;;;;;;0.20;0.20;;;2.80;99.90;;;;;;5103622;28;20040;-93
2022/02/25 05:25:10;;;;;;;0.20;0.20;;;2.50;99.90;;;;;;5114014;28;20035;-87
2022/02/25 05:27:37;;;;;;;0.20;0.20;;;2.50;99.90;;;;;;5131384;28;20088;-86
2022/02/25 05:30:05;;;;;;;0.20;0.20;;;2.50;99.90;;;;;;5114299;28;20047;-93
2022/02/25 05:32:32;;;;;;;0.20;0.20;;;2.50;99.90;;;;;;5130340;28;20047;-87
2022/02/25 05:34:58;;;;;;;0.20;0.20;;;2.50;99.90;;;;;;5114261;28;20044;-93
2022/02/25 05:37:25;;;;;;;0.20;0.20;;;2.50;99.90;;;;;;5113901;28;20122;-86
2022/02/25 05:39:52;;;;;;;0.20;0.20;;;2.40;99.90;;;;;;5131450;28;20043;-94
2022/02/25 05:42:22;;;;;;;0.17;0.17;;;3.10;99.90;;;;;;5114185;28;20127;-94
2022/02/25 05:44:49;;;;;;;0.20;0.20;;;2.50;99.90;;;;;;5097461;28;20142;-93
2022/02/25 05:47:17;;;;;;;0.10;0.10;;;3.10;99.90;;;;;;5113736;28;20039;-85
2022/02/25 05:49:44;;;;;;;0.20;0.20;;;2.40;99.90;;;;;;5130864;28;20718;-86
2022/02/25 05:52:10;;;;;;;0.70;0.50;;;3.30;99.90;;;;;;5096854;28;20040;-88
2022/02/25 05:54:40;;;;;;;0.20;0.20;;;3.30;99.90;;;;;;5113978;28;20067;-94
2022/02/25 05:57:07;;;;;;;0.10;0.10;;;2.40;99.90;;;;;;5114276;28;20050;-86
2022/02/25 05:59:33;;;;;;;0.20;0.20;;;2.40;99.90;;;;;;5097088;28;20043;-94
2022/02/25 06:02:00;;;;;;;0.17;0.17;;;3.00;99.90;;;;;;5097578;28;20036;-87
2022/02/25 06:04:27;;;;;;;0.10;0.10;;;2.40;99.90;;;;;;5097406;28;20104;-87
2022/02/25 06:06:53;;;;;;;0.20;0.20;;;2.30;99.90;;;;;;5097129;28;20390;-86
2022/02/25 06:09:20;;;;;;;0.20;0.20;;;2.30;99.90;;;;;;5099749;28;20106;-86
2022/02/25 06:11:47;;;;;;;0.20;0.20;;;3.50;99.90;;;;;;5113996;28;20035;-86
2022/02/25 06:14:14;;;;;;;0.20;0.20;;;2.40;99.90;;;;;;5096884;28;20044;-92
2022/02/25 06:16:40;;;;;;;0.10;0.10;;;3.50;99.90;;;;;;5096632;28;20040;-86
2022/02/25 06:19:07;;;;;;;0.20;0.20;;;2.50;99.90;;;;;;5113325;28;20039;-94
2022/02/25 06:21:34;;;;;;;0.13;0.13;;;3.00;99.90;;;;;;5096308;28;20047;-87
2022/02/25 06:24:02;;;;;;;0.20;0.20;;;3.50;99.90;;;;;;5113558;28;20043;-86
2022/02/25 06:26:28;;;;;;;0.20;0.20;;;2.50;99.90;;;;;;5130444;28;20066;-86
2022/02/25 06:28:55;;;;;;;0.20;0.20;;;3.70;99.90;;;;;;5113817;28;20598;-93
2022/02/25 06:31:23;;;;;;;0.20;0.20;;;2.60;99.90;;;;;;5130102;28;20043;-86
2022/02/25 06:33:49;;;;;;;0.10;0.10;;;2.60;99.90;;;;;;5097252;28;20043;-86
2022/02/25 06:36:16;;;;;;;0.20;0.20;;;2.60;99.90;;;;;;5131050;28;20100;-93
2022/02/25 06:38:43;;;;;;;0.20;0.20;;;2.60;99.90;;;;;;5113626;28;20142;-86
2022/02/25 06:41:10;;;;;;;0.20;0.20;;;2.70;99.90;;;;;;5113417;28;20469;-87
2022/02/25 06:43:37;;;;;;;0.20;0.20;;;3.30;99.90;;;;;;5096904;28;20043;-86
2022/02/25 06:46:04;;;;;;;0.20;0.20;;;3.70;99.90;;;;;;5100529;28;20047;-86
2022/02/25 06:48:31;;;;;;;0.20;0.20;;;2.60;99.90;;;;;;5116924;28;20500;-94
2022/02/25 06:50:57;;;;;;;0.20;0.20;;;2.80;99.90;;;;;;5117186;28;20036;-94
2022/02/25 06:53:24;;;;;;;0.10;0.10;;;3.80;99.90;;;;;;5116581;28;20035;-95
2022/02/25 06:55:51;;;;;;;0.20;0.20;;;3.50;99.90;;;;;;5099758;28;20043;-87
2022/02/25 06:58:18;;;;;;;0.20;0.20;;;2.90;99.90;;;;;;5100597;28;20039;-87
2022/02/25 07:00:44;;;;;;;0.10;0.10;;;2.70;99.90;;;;;;5100457;28;20047;-87
2022/02/25 07:03:11;;;;;;;0.20;0.20;;;2.70;99.90;;;;;;5134365;28;20131;-94
2022/02/25 07:05:39;;;;;;;0.10;0.10;;;2.70;99.90;;;;;;5102895;27;20043;-94
2022/02/25 07:08:10;;;;;;;0.20;0.20;;;2.70;99.90;;;;;;5137698;27;20042;-94
2022/02/25 07:10:38;;;;;;;0.13;0.13;;;3.90;99.90;;;;;;5119862;27;20043;-87
2022/02/25 07:13:07;;;;;;;0.13;0.13;;;2.70;99.90;;;;;;5137409;27;20041;-87
2022/02/25 07:15:34;;;;;;;0.10;0.10;;;3.40;99.90;;;;;;5137089;27;20096;-94
2022/02/25 07:18:02;;;;;;;0.10;0.10;;;3.20;99.90;;;;;;5137506;27;20049;-94
2022/02/25 07:20:29;;;;;;;0.20;0.20;;;2.80;99.90;;;;;;5137020;27;20039;-87
2022/02/25 07:22:56;;;;;;;0.20;0.20;;;2.90;99.90;;;;;;5120357;27;20045;-87
2022/02/25 07:25:23;;;;;;;0.20;0.20;;;2.80;99.90;;;;;;5120472;27;20391;-94
2022/02/25 07:27:50;;;;;;;0.10;0.10;;;2.90;99.90;;;;;;5133607;28;20526;-93
2022/02/25 07:30:17;;;;;;;0.30;0.30;;;2.90;99.90;;;;;;5124394;27;20047;-87
2022/02/25 07:32:44;;;;;;;0.20;0.20;;;3.00;99.90;;;;;;5119521;27;20039;-93
2022/02/25 07:35:12;;;;;;;0.20;0.20;;;3.00;99.90;;;;;;5137091;27;20035;-87
2022/02/25 07:37:40;;;;;;;0.20;0.20;;;3.60;99.90;;;;;;5119998;27;20043;-87
2022/02/25 07:40:10;;;;;;;0.20;0.20;;;3.10;99.90;;;;;;5136550;27;20046;-86
2022/02/25 07:42:37;;;;;;;0.10;0.10;;;3.10;99.90;;;;;;5153445;27;20103;-94
2022/02/25 07:45:04;;;;;;;0.03;0.03;;;3.20;99.90;;;;;;5102884;27;20066;-91
2022/02/25 07:47:30;;;;;;;0.17;0.17;;;3.30;99.90;;;;;;5136656;27;20034;-91
2022/02/25 07:49:57;;;;;;;0.20;0.20;;;4.40;99.90;;;;;;5136852;27;20039;-91
2022/02/25 07:52:24;;;;;;;0.10;0.10;;;3.30;99.90;;;;;;5136673;27;20035;-92
2022/02/25 07:54:51;;;;;;;0.10;0.10;;;3.30;99.90;;;;;;5102181;27;20122;-93
2022/02/25 07:57:18;;;;;;;0.10;0.10;;;3.40;99.90;;;;;;5134331;27;20039;-87
2022/02/25 07:59:47;;;;;;;0.10;0.10;;;4.20;99.90;;;;;;5134360;27;20051;-87
2022/02/25 08:02:14;;;;;;;0.20;0.20;;;3.30;99.90;;;;;;5117612;27;20464;-88
2022/02/25 08:04:41;;;;;;;0.10;0.10;;;4.20;99.90;;;;;;5115153;28;20118;-87
2022/02/25 08:07:08;;;;;;;0.13;0.13;;;4.00;99.90;;;;;;5084780;28;20040;-91
2022/02/25 08:09:35;;;;;;;0.17;0.17;;;3.40;99.90;;;;;;5099020;28;20765;-88
2022/02/25 08:12:03;;;;;;;0.10;0.10;;;3.40;99.90;;;;;;5112777;27;20038;-89
2022/02/25 08:14:33;;;;;;;0.10;0.10;;;3.50;99.90;;;;;;5119463;27;20050;-88
2022/02/25 08:17:00;;;;;;;0.10;0.10;;;3.60;99.90;;;;;;5114186;27;20629;-90
2022/02/25 08:19:27;;;;;;;0.10;0.10;;;3.60;99.90;;;;;;5102479;27;20122;-90
2022/02/25 08:21:53;;;;;;;0.17;0.17;;;3.70;99.90;;;;;;5101920;27;20031;-90
2022/02/25 08:24:20;;;;;;;0.13;0.13;;;3.70;99.90;;;;;;5102235;27;20116;-88
2022/02/25 08:26:47;;;;;;;0.10;0.10;;;3.80;99.90;;;;;;5102248;27;20035;-88
2022/02/25 08:29:13;;;;;;;0.10;0.10;;;3.90;99.90;;;;;;5118769;27;20046;-88
2022/02/25 08:31:43;;;;;;;0.10;0.10;;;4.30;99.90;;;;;;5135858;27;20107;-90
2022/02/25 08:34:11;;;;;;;0.15;0.15;;;4.00;99.90;;;;;;5124048;27;20491;-90
2022/02/25 08:36:38;;;;;;;0.10;0.10;;;4.10;99.90;;;;;;5134690;27;20039;-89
2022/02/25 08:39:05;;;;;;;0.10;0.10;;;4.30;99.90;;;;;;5134513;27;20552;-87
2022/02/25 08:41:32;;;;;;;0.10;0.10;;;4.40;99.90;;;;;;5124102;27;20403;-89
2022/02/25 08:43:59;;;;;;;0.10;0.10;;;4.70;99.90;;;;;;5135414;27;20156;-88
2022/02/25 08:46:27;;;;;;;0.10;0.10;;;4.70;99.90;;;;;;5135611;27;20031;-88
2022/02/25 08:48:54;;;;;;;0.10;0.10;;;4.90;99.90;;;;;;5118002;27;20066;-91
2022/02/25 08:51:20;;;;;;;0.10;0.10;;;5.80;99.90;;;;;;5118640;27;20491;-91
2022/02/25 08:53:47;;;;;;;0.10;0.10;;;5.10;99.90;;;;;;5106212;28;20043;-88
2022/02/25 08:56:14;;;;;;;0.10;0.10;;;4.90;99.90;;;;;;5115691;27;20083;-88
2022/02/25 08:58:41;;;;;;;0.10;0.10;;;6.10;99.90;;;;;;5100894;27;20043;-88
2022/02/25 09:01:07;;;;;;;0.10;0.10;;;4.80;99.90;;;;;;5101523;27;20039;-91
2022/02/25 09:03:35;;;;;;;0.10;0.10;;;4.80;99.90;;;;;;5101844;27;20043;-90
2022/02/25 09:06:02;;;;;;;0.10;0.10;;;4.80;99.90;;;;;;5129844;27;20044;-89
2022/02/25 09:08:29;;;;;;;0.10;0.10;;;4.70;99.90;;;;;;5120434;28;20528;-90
2022/02/25 09:10:56;;;;;;;0.10;0.10;;;4.70;99.90;;;;;;5081004;28;20608;-87
2022/02/25 09:13:22;;;;;;;0.10;0.10;;;4.60;99.90;;;;;;5097359;28;20036;-88
2022/02/25 09:15:49;;;;;;;0.10;0.10;;;4.60;99.90;;;;;;5115564;27;20039;-92
2022/02/25 09:18:16;;;;;;;0.10;0.10;;;5.50;99.90;;;;;;5134236;27;20507;-89
2022/02/25 09:20:43;;;;;;;0.17;0.17;;;5.30;99.90;;;;;;5117469;27;20041;-87
2022/02/25 09:23:10;;;;;;;0.10;0.10;;;4.50;99.90;;;;;;5117297;27;20047;-86
2022/02/25 09:25:37;;;;;;;0.10;0.10;;;4.50;99.90;;;;;;5117252;27;20095;-87
2022/02/25 09:28:04;;;;;;;0.10;0.10;;;4.60;99.90;;;;;;5134657;27;20071;-87
2022/02/25 09:30:31;;;;;;;0.10;0.10;;;5.00;99.90;;;;;;5117504;27;20039;-89
2022/02/25 09:32:58;;;;;;;0.10;0.10;;;4.50;99.90;;;;;;5116096;27;20492;-89
2022/02/25 09:35:25;;;;;;;0.10;0.10;;;4.60;99.90;;;;;;5134086;27;20091;-88
2022/02/25 09:37:52;;;;;;;0.10;0.10;;;5.60;99.90;;;;;;5117469;27;20042;-88
2022/02/25 09:40:20;;;;;;;0.10;0.10;;;4.80;99.90;;;;;;5150937;27;20855;-87
2022/02/25 09:42:48;;;;;;;0.10;0.10;;;5.40;99.90;;;;;;5133700;27;20050;-88
2022/02/25 09:45:17;;;;;;;0.52;0.52;;;5.30;99.90;;;;;;5117327;27;20039;-88
2022/02/25 09:47:44;;;;;;;0.10;0.10;;;5.50;99.90;;;;;;5133822;27;20035;-88
2022/02/25 09:50:15;;;;;;;0.10;0.10;;;5.80;99.90;;;;;;5134323;27;20035;-90
2022/02/25 09:52:43;;;;;;;0.20;0.20;;;5.90;99.90;;;;;;5133619;27;20121;-89
2022/02/25 09:55:31;;;;;;;0.10;0.10;;;6.00;99.90;;;;;;5133949;28;20487;-89
2022/02/25 09:58:03;;;;;;;0.10;0.10;;;5.90;99.90;;;;;;5133117;27;20051;-89
2022/02/25 10:00:31;;;;;;;0.10;0.10;;;5.90;99.90;;;;;;5134094;27;20050;-91
2022/02/25 10:03:04;;;;;;;0.05;0.05;;;6.00;99.90;;;;;;5133349;28;20035;-90
2022/02/25 10:05:34;;;;;;;0.65;0.65;;;6.10;99.90;;;;;;5133749;28;20043;-89
2022/02/25 10:08:18;;;;;;;0.10;0.10;;;5.90;99.90;;;;;;5116050;28;20088;-90
2022/02/25 10:10:52;;;;;;;0.10;0.10;;;5.90;99.90;;;;;;5127306;28;20050;-88
2022/02/25 10:13:21;;;;;;;0.20;0.20;;;6.80;99.90;;;;;;5132333;28;20099;-90
2022/02/25 10:15:51;;;;;;;0.10;0.10;;;5.80;99.90;;;;;;5132976;27;20051;-87
2022/02/25 10:18:23;;;;;;;0.10;0.10;;;5.70;99.90;;;;;;5136230;27;20039;-86
2022/02/25 10:21:01;;;;;;;0.10;0.10;;;5.50;99.90;;;;;;5136749;27;20031;-91
2022/02/25 10:23:31;;;;;;;0.10;0.10;;;5.40;99.90;;;;;;5133858;27;20066;-89
2022/02/25 10:26:16;;;;;;;0.10;0.10;;;5.30;99.90;;;;;;5137294;27;20031;-89
2022/02/25 10:28:54;;;;;;;0.10;0.10;;;5.20;99.90;;;;;;5156749;27;20031;-88
2022/02/25 10:31:26;;;;;;;0.10;0.10;;;5.20;99.90;;;;;;5137995;27;20035;-87
2022/02/25 10:34:13;;;;;;;0.10;0.10;;;5.10;99.90;;;;;;5137325;27;20067;-88
2022/02/25 10:36:49;;;;;;;0.10;0.10;;;5.10;99.90;;;;;;5121276;27;20043;-87
2022/02/25 10:39:21;;;;;;;0.10;0.10;;;5.10;99.90;;;;;;5137498;27;20161;-88
2022/02/25 10:42:11;;;;;;;0.10;0.10;;;5.10;99.90;;;;;;5136838;27;20441;-87
2022/02/25 10:44:59;;;;;;;0.08;0.08;;;5.00;99.90;;;;;;5135078;27;20043;-89
2022/02/25 10:47:29;;;;;;;0.10;0.10;;;5.00;99.90;;;;;;5127526;27;20035;-89
2022/02/25 10:50:00;;;;;;;0.10;0.10;;;5.10;99.90;;;;;;5133485;28;20400;-87
2022/02/25 10:52:33;;;;;;;0.10;0.10;;;5.00;99.90;;;;;;5136085;27;20091;-89
2022/02/25 10:55:02;;;;;;;0.10;0.10;;;5.40;99.90;;;;;;5136551;27;20384;-88
2022/02/25 10:57:32;;;;;;;0.10;0.10;;;5.00;99.90;;;;;;5147327;27;20050;-90
2022/02/25 11:00:01;;;;;;;0.10;0.10;;;5.10;99.90;;;;;;5137057;27;20039;-87
2022/02/25 11:02:37;;;;;;;0.10;0.10;;;5.10;99.90;;;;;;5136795;27;20046;-90
2022/02/25 11:05:13;;;;;;;0.10;0.10;;;5.20;99.90;;;;;;5136441;27;20479;-89
2022/02/25 11:07:40;;;;;;;;;;;5.30;99.90;;;;;;5131432;27;20057;-91
2022/02/25 11:10:09;;;;;;;0.10;0.10;;;5.60;99.90;;;;;;5136924;27;19923;-92
2022/02/25 11:12:39;;;;;;;0.10;0.10;;;5.30;99.90;;;;;;5136691;27;20054;-88
2022/02/25 11:15:08;;;;;;;0.10;0.10;;;5.30;99.90;;;;;;5137056;27;20127;-90
2022/02/25 11:17:37;;;;;;;0.10;0.10;;;5.30;99.90;;;;;;5121177;27;20047;-91
2022/02/25 11:20:08;;;;;;;0.10;0.10;;;5.30;99.90;;;;;;5136440;27;20533;-91
2022/02/25 11:22:40;;;;;;;0.10;0.10;;;5.20;99.90;;;;;;5137074;27;20100;-92
2022/02/25 11:25:15;;;;;;;0.10;0.10;;;5.20;99.90;;;;;;5134023;27;20047;-92
2022/02/25 11:27:43;;;;;;;0.10;0.10;;;5.20;99.90;;;;;;5136372;27;20039;-88
2022/02/25 11:30:20;;;;;;;0.10;0.10;;;5.30;99.90;;;;;;5118713;27;20035;-92
2022/02/25 11:32:59;;;;;;;0.10;0.10;;;5.50;99.90;;;;;;5136354;27;20453;-88
2022/02/25 11:35:35;;;;;;;0.10;0.10;;;5.70;99.90;;;;;;5136383;27;20171;-88
2022/02/25 11:38:10;;;;;;;0.10;0.10;;;6.10;99.90;;;;;;5136125;27;20039;-91
2022/02/25 11:40:49;;;;;;;0.10;0.10;;;6.20;99.90;;;;;;5136733;27;20388;-88
2022/02/25 11:43:23;;;;;;;0.10;0.10;;;6.10;99.90;;;;;;5136341;27;20042;-90
2022/02/25 11:45:52;;;;;;;0.10;0.10;;;5.70;99.90;;;;;;5119769;27;20071;-88
2022/02/25 11:48:23;;;;;;;0.10;0.10;;;5.70;99.90;;;;;;5135999;27;20482;-87
2022/02/25 11:50:54;;;;;;;0.10;0.10;;;5.80;99.90;;;;;;5135515;27;20092;-92
2022/02/25 11:53:28;;;;;;;0.10;0.10;;;5.40;99.90;;;;;;5135910;27;20043;-87
2022/02/25 11:56:14;;;;;;;0.10;0.10;;;5.40;99.90;;;;;;5118788;27;20039;-87
2022/02/25 11:58:45;;;;;;;0.10;0.10;;;5.40;99.90;;;;;;5122376;27;20042;-87
2022/02/25 12:01:14;;;;;;;0.05;0.05;;;5.50;99.90;;;;;;5135913;27;20042;-91
2022/02/25 12:04:02;;;;;;;0.10;0.10;;;6.30;99.90;;;;;;5135959;27;20496;-88
2022/02/25 12:06:49;;;;;;;0.10;0.10;;;5.80;99.90;;;;;;5135505;27;20062;-91
2022/02/25 12:09:52;;;;;;;0.10;0.10;;;5.90;99.90;;;;;;5118483;28;20530;-87
2022/02/25 12:12:28;;;;;;;0.10;0.10;;;6.20;99.90;;;;;;5134466;27;20411;-90
2022/02/25 12:15:12;;;;;;;;;;;6.50;99.90;;;;;;5115932;28;20049;-90
2022/02/25 12:17:51;;;;;;;0.10;0.10;;;6.60;99.90;;;;;;5124683;27;19993;-88
2022/02/25 12:20:33;;;;;;;0.10;0.10;;;6.60;99.90;;;;;;5135460;27;20499;-88
2022/02/25 12:23:06;;;;;;;0.10;0.10;;;6.60;99.90;;;;;;5135455;27;20039;-90
2022/02/25 12:25:38;;;;;;;0.10;0.10;;;6.60;99.90;;;;;;5135841;27;20039;-90
2022/02/25 12:28:28;;;;;;;0.10;0.10;;;6.70;99.90;;;;;;5134900;27;20035;-88
2022/02/25 12:31:03;;;;;;;0.10;0.10;;;6.80;99.90;;;;;;5121422;27;20035;-88
2022/02/25 12:33:33;;;;;;;0.10;0.10;;;7.20;99.90;;;;;;5135474;27;20031;-88
2022/02/25 12:36:02;;;;;;;0.10;0.10;;;7.00;99.90;;;;;;5183439;27;20867;-89
2022/02/25 12:38:30;;;;;;;0.10;0.10;;;7.20;99.90;;;;;;5135579;27;20073;-88
2022/02/25 12:41:16;;;;;;;0.10;0.10;;;7.30;99.90;;;;;;5114006;28;20050;-90
2022/02/25 12:43:53;;;;;;;0.10;0.10;;;6.90;99.90;;;;;;5130716;27;20114;-87
2022/02/25 12:46:23;;;;;;;0.08;0.08;;;6.10;99.90;;;;;;5129782;27;20049;-87
2022/02/25 12:48:51;;;;;;;0.00;0.00;;;5.30;99.90;;;;;;5134796;27;20046;-91
2022/02/25 12:51:19;;;;;;;0.10;0.10;;;4.60;99.90;;;;;;5117933;27;20031;-91
2022/02/25 12:53:48;;;;;;;0.10;0.10;;;4.40;99.90;;;;;;5135797;27;20085;-87
2022/02/25 12:56:22;;;;;;;0.10;0.10;;;4.20;99.90;;;;;;5117595;27;20136;-91
2022/02/25 12:58:51;;;;;;;0.10;0.10;;;4.10;99.90;;;;;;5128199;27;20039;-91
2022/02/25 13:01:23;;;;;;;0.10;0.10;;;4.10;99.90;;;;;;5134371;27;20104;-86
2022/02/25 13:03:57;;;;;;;0.10;0.10;;;4.80;99.90;;;;;;5132647;27;20035;-87
2022/02/25 13:06:26;;;;;;;0.00;0.00;;;4.10;99.90;;;;;;5132298;27;20069;-90
2022/02/25 13:08:55;;;;;;;0.10;0.10;;;4.00;99.90;;;;;;5133653;28;20078;-87
2022/02/25 13:11:23;;;;;;;0.10;0.10;;;4.60;99.90;;;;;;5102001;28;20168;-90